sensor_id;sensor_type;location;lat;lon;timestamp;P1;durP1;ratioP1;P2;durP2;ratioP2
50429;SDS011;36359;41.556;-8.418;2023-09-19T00:00:37;9.57;;;2.30;;
50429;SDS011;36359;41.556;-8.418;2023-09-19T00:03:05;7.80;;;2.28;;
50429;SDS011;36359;41.556;-8.418;2023-09-19T00:05:34;6.90;;;1.70;;
50429;SDS011;36359;41.556;-8.418;2023-09-19T00:08:01;10.18;;;2.55;;
50429;SDS011;36359;41.556;-8.418;2023-09-19T00:10:34;12.80;;;2.80;;
50429;SDS011;36359;41.556;-8.418;2023-09-19T00:13:05;6.45;;;2.05;;
50429;SDS011;36359;41.556;-8.418;2023-09-19T00:15:31;9.35;;;2.33;;
50429;SDS011;36359;41.556;-8.418;2023-09-19T00:18:05;8.27;;;2.33;;
50429;SDS011;36359;41.556;-8.418;2023-09-19T00:20:32;12.57;;;3.20;;
50429;SDS011;36359;41.556;-8.418;2023-09-19T00:23:00;7.40;;;2.33;;
50429;SDS011;36359;41.556;-8.418;2023-09-19T00:25:33;10.88;;;2.20;;
50429;SDS011;36359;41.556;-8.418;2023-09-19T00:28:00;7.95;;;2.30;;
50429;SDS011;36359;41.556;-8.418;2023-09-19T00:30:26;7.40;;;2.08;;
50429;SDS011;36359;41.556;-8.418;2023-09-19T00:32:52;9.05;;;2.50;;
50429;SDS011;36359;41.556;-8.418;2023-09-19T00:35:18;8.57;;;1.90;;
50429;SDS011;36359;41.556;-8.418;2023-09-19T00:37:47;8.05;;;2.53;;
50429;SDS011;36359;41.556;-8.418;2023-09-19T00:40:12;17.88;;;3.47;;
50429;SDS011;36359;41.556;-8.418;2023-09-19T00:42:41;7.03;;;1.90;;
50429;SDS011;36359;41.556;-8.418;2023-09-19T00:45:08;4.93;;;1.73;;
50429;SDS011;36359;41.556;-8.418;2023-09-19T00:47:42;8.32;;;2.47;;
50429;SDS011;36359;41.556;-8.418;2023-09-19T00:50:11;6.50;;;1.95;;
50429;SDS011;36359;41.556;-8.418;2023-09-19T00:52:39;12.18;;;3.30;;
50429;SDS011;36359;41.556;-8.418;2023-09-19T00:55:08;7.88;;;2.30;;
50429;SDS011;36359;41.556;-8.418;2023-09-19T00:57:35;6.82;;;2.22;;
50429;SDS011;36359;41.556;-8.418;2023-09-19T01:00:04;6.85;;;2.28;;
50429;SDS011;36359;41.556;-8.418;2023-09-19T01:02:33;9.63;;;2.88;;
50429;SDS011;36359;41.556;-8.418;2023-09-19T01:05:00;9.75;;;2.05;;
50429;SDS011;36359;41.556;-8.418;2023-09-19T01:07:27;9.63;;;2.08;;
50429;SDS011;36359;41.556;-8.418;2023-09-19T01:09:58;7.78;;;2.47;;
50429;SDS011;36359;41.556;-8.418;2023-09-19T01:15:04;5.47;;;1.73;;
50429;SDS011;36359;41.556;-8.418;2023-09-19T01:21:00;10.13;;;2.35;;
50429;SDS011;36359;41.556;-8.418;2023-09-19T01:29:25;11.80;;;2.50;;
50429;SDS011;36359;41.556;-8.418;2023-09-19T01:32:01;7.32;;;2.20;;
50429;SDS011;36359;41.556;-8.418;2023-09-19T01:34:49;11.52;;;3.08;;
50429;SDS011;36359;41.556;-8.418;2023-09-19T01:37:29;8.75;;;2.25;;
50429;SDS011;36359;41.556;-8.418;2023-09-19T01:39:59;9.90;;;3.28;;
50429;SDS011;36359;41.556;-8.418;2023-09-19T01:51:00;11.43;;;2.33;;
50429;SDS011;36359;41.556;-8.418;2023-09-19T01:56:39;9.23;;;2.20;;
50429;SDS011;36359;41.556;-8.418;2023-09-19T01:59:41;8.43;;;2.85;;
50429;SDS011;36359;41.556;-8.418;2023-09-19T02:02:14;8.95;;;2.35;;
50429;SDS011;36359;41.556;-8.418;2023-09-19T02:04:43;9.55;;;4.05;;
50429;SDS011;36359;41.556;-8.418;2023-09-19T02:07:09;8.50;;;4.32;;
50429;SDS011;36359;41.556;-8.418;2023-09-19T02:09:34;7.35;;;2.10;;
50429;SDS011;36359;41.556;-8.418;2023-09-19T02:12:04;6.68;;;2.22;;
50429;SDS011;36359;41.556;-8.418;2023-09-19T02:14:30;6.82;;;3.58;;
50429;SDS011;36359;41.556;-8.418;2023-09-19T02:16:56;5.25;;;2.22;;
50429;SDS011;36359;41.556;-8.418;2023-09-19T02:19:22;5.50;;;4.05;;
50429;SDS011;36359;41.556;-8.418;2023-09-19T02:21:48;6.72;;;3.78;;
50429;SDS011;36359;41.556;-8.418;2023-09-19T02:24:14;8.07;;;3.80;;
50429;SDS011;36359;41.556;-8.418;2023-09-19T02:26:41;8.60;;;3.92;;
50429;SDS011;36359;41.556;-8.418;2023-09-19T02:29:07;8.95;;;4.78;;
50429;SDS011;36359;41.556;-8.418;2023-09-19T02:31:35;8.85;;;2.85;;
50429;SDS011;36359;41.556;-8.418;2023-09-19T02:34:00;4.97;;;2.40;;
50429;SDS011;36359;41.556;-8.418;2023-09-19T02:36:26;7.28;;;2.50;;
50429;SDS011;36359;41.556;-8.418;2023-09-19T02:38:52;7.38;;;5.72;;
50429;SDS011;36359;41.556;-8.418;2023-09-19T02:41:18;8.23;;;5.93;;
50429;SDS011;36359;41.556;-8.418;2023-09-19T02:43:44;8.30;;;6.20;;
50429;SDS011;36359;41.556;-8.418;2023-09-19T02:46:09;9.63;;;6.22;;
50429;SDS011;36359;41.556;-8.418;2023-09-19T02:48:36;8.10;;;5.28;;
50429;SDS011;36359;41.556;-8.418;2023-09-19T02:51:02;9.05;;;5.53;;
50429;SDS011;36359;41.556;-8.418;2023-09-19T02:53:28;8.35;;;5.07;;
50429;SDS011;36359;41.556;-8.418;2023-09-19T02:55:56;8.15;;;5.30;;
50429;SDS011;36359;41.556;-8.418;2023-09-19T02:58:22;6.63;;;3.40;;
50429;SDS011;36359;41.556;-8.418;2023-09-19T03:00:49;4.50;;;2.28;;
50429;SDS011;36359;41.556;-8.418;2023-09-19T03:03:16;6.70;;;2.88;;
50429;SDS011;36359;41.556;-8.418;2023-09-19T03:05:43;6.40;;;2.30;;
50429;SDS011;36359;41.556;-8.418;2023-09-19T03:08:14;7.55;;;2.72;;
50429;SDS011;36359;41.556;-8.418;2023-09-19T03:10:40;6.57;;;2.85;;
50429;SDS011;36359;41.556;-8.418;2023-09-19T03:13:06;8.05;;;3.42;;
50429;SDS011;36359;41.556;-8.418;2023-09-19T03:15:35;6.95;;;2.75;;
50429;SDS011;36359;41.556;-8.418;2023-09-19T03:18:04;6.17;;;2.70;;
50429;SDS011;36359;41.556;-8.418;2023-09-19T03:20:31;5.18;;;2.50;;
50429;SDS011;36359;41.556;-8.418;2023-09-19T03:22:57;6.97;;;4.15;;
50429;SDS011;36359;41.556;-8.418;2023-09-19T03:25:23;6.22;;;3.00;;
50429;SDS011;36359;41.556;-8.418;2023-09-19T03:27:51;4.85;;;2.83;;
50429;SDS011;36359;41.556;-8.418;2023-09-19T03:30:17;5.78;;;2.60;;
50429;SDS011;36359;41.556;-8.418;2023-09-19T03:32:47;5.95;;;3.38;;
50429;SDS011;36359;41.556;-8.418;2023-09-19T03:35:16;6.25;;;3.15;;
50429;SDS011;36359;41.556;-8.418;2023-09-19T03:37:42;7.90;;;3.08;;
50429;SDS011;36359;41.556;-8.418;2023-09-19T03:40:10;5.30;;;2.38;;
50429;SDS011;36359;41.556;-8.418;2023-09-19T03:42:40;7.53;;;2.55;;
50429;SDS011;36359;41.556;-8.418;2023-09-19T03:45:08;6.70;;;2.90;;
50429;SDS011;36359;41.556;-8.418;2023-09-19T03:47:41;4.07;;;2.22;;
50429;SDS011;36359;41.556;-8.418;2023-09-19T03:50:08;6.75;;;2.72;;
50429;SDS011;36359;41.556;-8.418;2023-09-19T03:52:36;5.40;;;2.58;;
50429;SDS011;36359;41.556;-8.418;2023-09-19T03:55:02;5.10;;;2.47;;
50429;SDS011;36359;41.556;-8.418;2023-09-19T03:57:30;4.32;;;2.40;;
50429;SDS011;36359;41.556;-8.418;2023-09-19T03:59:56;5.45;;;2.63;;
50429;SDS011;36359;41.556;-8.418;2023-09-19T04:02:21;5.88;;;3.00;;
50429;SDS011;36359;41.556;-8.418;2023-09-19T04:04:49;6.10;;;2.33;;
50429;SDS011;36359;41.556;-8.418;2023-09-19T04:07:18;7.43;;;2.55;;
50429;SDS011;36359;41.556;-8.418;2023-09-19T04:09:47;6.78;;;2.42;;
50429;SDS011;36359;41.556;-8.418;2023-09-19T04:12:14;9.80;;;2.92;;
50429;SDS011;36359;41.556;-8.418;2023-09-19T04:14:42;4.40;;;1.92;;
50429;SDS011;36359;41.556;-8.418;2023-09-19T04:17:08;7.13;;;2.15;;
50429;SDS011;36359;41.556;-8.418;2023-09-19T04:19:35;5.85;;;2.25;;
50429;SDS011;36359;41.556;-8.418;2023-09-19T04:22:01;7.57;;;2.53;;
50429;SDS011;36359;41.556;-8.418;2023-09-19T04:24:28;3.95;;;2.17;;
50429;SDS011;36359;41.556;-8.418;2023-09-19T04:26:54;6.03;;;2.10;;
50429;SDS011;36359;41.556;-8.418;2023-09-19T04:29:20;4.80;;;2.20;;
50429;SDS011;36359;41.556;-8.418;2023-09-19T04:31:45;11.35;;;2.45;;
50429;SDS011;36359;41.556;-8.418;2023-09-19T04:34:11;5.72;;;2.25;;
50429;SDS011;36359;41.556;-8.418;2023-09-19T04:36:43;8.20;;;2.45;;
50429;SDS011;36359;41.556;-8.418;2023-09-19T04:39:09;6.07;;;2.45;;
50429;SDS011;36359;41.556;-8.418;2023-09-19T04:41:36;8.40;;;2.55;;
50429;SDS011;36359;41.556;-8.418;2023-09-19T04:44:06;8.75;;;2.40;;
50429;SDS011;36359;41.556;-8.418;2023-09-19T04:46:33;7.68;;;2.00;;
50429;SDS011;36359;41.556;-8.418;2023-09-19T04:48:59;8.43;;;2.13;;
50429;SDS011;36359;41.556;-8.418;2023-09-19T04:51:25;6.05;;;2.13;;
50429;SDS011;36359;41.556;-8.418;2023-09-19T04:53:54;3.60;;;1.95;;
50429;SDS011;36359;41.556;-8.418;2023-09-19T04:56:20;4.03;;;2.10;;
50429;SDS011;36359;41.556;-8.418;2023-09-19T04:58:46;5.45;;;1.90;;
50429;SDS011;36359;41.556;-8.418;2023-09-19T05:01:12;4.47;;;1.98;;
50429;SDS011;36359;41.556;-8.418;2023-09-19T05:03:40;6.60;;;1.95;;
50429;SDS011;36359;41.556;-8.418;2023-09-19T05:06:06;5.30;;;1.83;;
50429;SDS011;36359;41.556;-8.418;2023-09-19T05:08:31;8.98;;;2.25;;
50429;SDS011;36359;41.556;-8.418;2023-09-19T05:10:57;5.95;;;2.15;;
50429;SDS011;36359;41.556;-8.418;2023-09-19T05:13:22;5.68;;;1.70;;
50429;SDS011;36359;41.556;-8.418;2023-09-19T05:15:49;5.93;;;1.98;;
50429;SDS011;36359;41.556;-8.418;2023-09-19T05:18:17;6.50;;;2.63;;
50429;SDS011;36359;41.556;-8.418;2023-09-19T05:20:43;6.78;;;3.25;;
50429;SDS011;36359;41.556;-8.418;2023-09-19T05:23:09;10.73;;;3.35;;
50429;SDS011;36359;41.556;-8.418;2023-09-19T05:25:37;8.65;;;3.35;;
50429;SDS011;36359;41.556;-8.418;2023-09-19T05:28:04;29.95;;;3.42;;
50429;SDS011;36359;41.556;-8.418;2023-09-19T05:30:31;4.75;;;2.50;;
50429;SDS011;36359;41.556;-8.418;2023-09-19T05:32:57;5.15;;;2.17;;
50429;SDS011;36359;41.556;-8.418;2023-09-19T05:35:23;5.22;;;1.95;;
50429;SDS011;36359;41.556;-8.418;2023-09-19T05:37:50;4.18;;;2.50;;
50429;SDS011;36359;41.556;-8.418;2023-09-19T05:40:17;7.82;;;2.05;;
50429;SDS011;36359;41.556;-8.418;2023-09-19T05:42:43;3.58;;;2.17;;
50429;SDS011;36359;41.556;-8.418;2023-09-19T05:45:09;7.65;;;2.35;;
50429;SDS011;36359;41.556;-8.418;2023-09-19T05:47:41;4.90;;;1.98;;
50429;SDS011;36359;41.556;-8.418;2023-09-19T05:50:09;7.25;;;1.95;;
50429;SDS011;36359;41.556;-8.418;2023-09-19T05:52:35;10.80;;;2.28;;
50429;SDS011;36359;41.556;-8.418;2023-09-19T05:55:05;4.65;;;1.70;;
50429;SDS011;36359;41.556;-8.418;2023-09-19T05:57:33;3.25;;;1.63;;
50429;SDS011;36359;41.556;-8.418;2023-09-19T05:59:59;3.58;;;1.90;;
50429;SDS011;36359;41.556;-8.418;2023-09-19T06:02:25;3.30;;;1.60;;
50429;SDS011;36359;41.556;-8.418;2023-09-19T06:04:54;6.55;;;1.85;;
50429;SDS011;36359;41.556;-8.418;2023-09-19T06:07:23;3.15;;;1.67;;
50429;SDS011;36359;41.556;-8.418;2023-09-19T06:09:51;5.22;;;1.83;;
50429;SDS011;36359;41.556;-8.418;2023-09-19T06:12:19;3.63;;;1.50;;
50429;SDS011;36359;41.556;-8.418;2023-09-19T06:14:45;3.55;;;1.45;;
50429;SDS011;36359;41.556;-8.418;2023-09-19T06:17:11;1.98;;;1.25;;
50429;SDS011;36359;41.556;-8.418;2023-09-19T06:19:37;3.55;;;1.75;;
50429;SDS011;36359;41.556;-8.418;2023-09-19T06:22:02;4.85;;;1.60;;
50429;SDS011;36359;41.556;-8.418;2023-09-19T06:24:28;4.93;;;2.47;;
50429;SDS011;36359;41.556;-8.418;2023-09-19T06:26:54;2.22;;;1.02;;
50429;SDS011;36359;41.556;-8.418;2023-09-19T06:29:20;3.17;;;1.50;;
50429;SDS011;36359;41.556;-8.418;2023-09-19T06:31:48;3.72;;;1.50;;
50429;SDS011;36359;41.556;-8.418;2023-09-19T06:34:14;3.97;;;1.40;;
50429;SDS011;36359;41.556;-8.418;2023-09-19T06:36:40;3.28;;;1.65;;
50429;SDS011;36359;41.556;-8.418;2023-09-19T06:39:06;10.85;;;2.25;;
50429;SDS011;36359;41.556;-8.418;2023-09-19T06:41:36;4.13;;;1.40;;
50429;SDS011;36359;41.556;-8.418;2023-09-19T06:44:09;4.55;;;1.83;;
50429;SDS011;36359;41.556;-8.418;2023-09-19T06:46:35;5.50;;;1.95;;
50429;SDS011;36359;41.556;-8.418;2023-09-19T06:49:04;9.55;;;2.92;;
50429;SDS011;36359;41.556;-8.418;2023-09-19T06:51:31;2.75;;;1.33;;
50429;SDS011;36359;41.556;-8.418;2023-09-19T06:54:00;4.60;;;1.30;;
50429;SDS011;36359;41.556;-8.418;2023-09-19T06:56:27;9.60;;;2.00;;
50429;SDS011;36359;41.556;-8.418;2023-09-19T06:58:52;5.13;;;2.10;;
50429;SDS011;36359;41.556;-8.418;2023-09-19T07:01:18;6.50;;;2.33;;
50429;SDS011;36359;41.556;-8.418;2023-09-19T07:03:44;7.70;;;2.25;;
50429;SDS011;36359;41.556;-8.418;2023-09-19T07:06:10;8.20;;;2.53;;
50429;SDS011;36359;41.556;-8.418;2023-09-19T07:08:37;8.35;;;2.38;;
50429;SDS011;36359;41.556;-8.418;2023-09-19T07:11:03;6.13;;;2.13;;
50429;SDS011;36359;41.556;-8.418;2023-09-19T07:13:31;11.70;;;2.63;;
50429;SDS011;36359;41.556;-8.418;2023-09-19T07:16:00;8.40;;;2.60;;
50429;SDS011;36359;41.556;-8.418;2023-09-19T07:18:26;7.38;;;2.40;;
50429;SDS011;36359;41.556;-8.418;2023-09-19T07:20:56;4.75;;;1.77;;
50429;SDS011;36359;41.556;-8.418;2023-09-19T07:23:24;9.98;;;2.38;;
50429;SDS011;36359;41.556;-8.418;2023-09-19T07:25:56;9.75;;;2.53;;
50429;SDS011;36359;41.556;-8.418;2023-09-19T07:28:22;9.27;;;2.47;;
50429;SDS011;36359;41.556;-8.418;2023-09-19T07:30:51;10.98;;;3.97;;
50429;SDS011;36359;41.556;-8.418;2023-09-19T07:33:17;12.30;;;4.47;;
50429;SDS011;36359;41.556;-8.418;2023-09-19T07:35:47;11.38;;;5.13;;
50429;SDS011;36359;41.556;-8.418;2023-09-19T07:38:13;6.68;;;4.20;;
50429;SDS011;36359;41.556;-8.418;2023-09-19T07:40:39;8.50;;;3.25;;
50429;SDS011;36359;41.556;-8.418;2023-09-19T07:43:05;6.45;;;4.10;;
50429;SDS011;36359;41.556;-8.418;2023-09-19T07:45:32;7.43;;;2.72;;
50429;SDS011;36359;41.556;-8.418;2023-09-19T07:47:58;6.22;;;2.85;;
50429;SDS011;36359;41.556;-8.418;2023-09-19T07:50:25;9.48;;;3.13;;
50429;SDS011;36359;41.556;-8.418;2023-09-19T07:52:51;7.05;;;2.80;;
50429;SDS011;36359;41.556;-8.418;2023-09-19T07:55:18;8.25;;;2.60;;
50429;SDS011;36359;41.556;-8.418;2023-09-19T07:57:45;4.07;;;1.70;;
50429;SDS011;36359;41.556;-8.418;2023-09-19T08:00:12;8.60;;;2.17;;
50429;SDS011;36359;41.556;-8.418;2023-09-19T08:02:39;9.50;;;2.55;;
50429;SDS011;36359;41.556;-8.418;2023-09-19T08:05:07;9.10;;;3.05;;
50429;SDS011;36359;41.556;-8.418;2023-09-19T08:07:37;5.65;;;2.20;;
50429;SDS011;36359;41.556;-8.418;2023-09-19T08:10:04;5.90;;;2.42;;
50429;SDS011;36359;41.556;-8.418;2023-09-19T08:12:34;7.65;;;2.10;;
50429;SDS011;36359;41.556;-8.418;2023-09-19T08:15:03;9.20;;;4.72;;
50429;SDS011;36359;41.556;-8.418;2023-09-19T08:17:34;28.23;;;12.95;;
50429;SDS011;36359;41.556;-8.418;2023-09-19T08:20:01;34.60;;;14.38;;
50429;SDS011;36359;41.556;-8.418;2023-09-19T08:22:30;11.75;;;5.50;;
50429;SDS011;36359;41.556;-8.418;2023-09-19T08:27:51;7.82;;;3.00;;
50429;SDS011;36359;41.556;-8.418;2023-09-19T08:30:18;9.50;;;4.13;;
50429;SDS011;36359;41.556;-8.418;2023-09-19T08:32:49;7.55;;;3.30;;
50429;SDS011;36359;41.556;-8.418;2023-09-19T08:35:15;8.23;;;3.50;;
50429;SDS011;36359;41.556;-8.418;2023-09-19T08:37:42;8.65;;;3.65;;
50429;SDS011;36359;41.556;-8.418;2023-09-19T08:40:12;7.60;;;3.33;;
50429;SDS011;36359;41.556;-8.418;2023-09-19T08:45:33;9.20;;;4.15;;
50429;SDS011;36359;41.556;-8.418;2023-09-19T08:50:31;8.93;;;3.70;;
50429;SDS011;36359;41.556;-8.418;2023-09-19T08:53:06;16.60;;;7.80;;
50429;SDS011;36359;41.556;-8.418;2023-09-19T08:55:37;16.65;;;6.85;;
50429;SDS011;36359;41.556;-8.418;2023-09-19T08:58:06;14.00;;;6.28;;
50429;SDS011;36359;41.556;-8.418;2023-09-19T09:00:35;15.88;;;6.03;;
50429;SDS011;36359;41.556;-8.418;2023-09-19T09:03:02;15.85;;;7.18;;
50429;SDS011;36359;41.556;-8.418;2023-09-19T09:05:29;15.48;;;6.93;;
50429;SDS011;36359;41.556;-8.418;2023-09-19T09:07:57;15.85;;;5.80;;
50429;SDS011;36359;41.556;-8.418;2023-09-19T09:10:25;19.23;;;7.32;;
50429;SDS011;36359;41.556;-8.418;2023-09-19T09:12:52;12.75;;;6.05;;
50429;SDS011;36359;41.556;-8.418;2023-09-19T09:17:51;14.57;;;6.03;;
50429;SDS011;36359;41.556;-8.418;2023-09-19T09:20:21;13.20;;;4.47;;
50429;SDS011;36359;41.556;-8.418;2023-09-19T09:22:54;11.30;;;4.07;;
50429;SDS011;36359;41.556;-8.418;2023-09-19T09:25:24;11.75;;;4.10;;
50429;SDS011;36359;41.556;-8.418;2023-09-19T09:28:20;12.60;;;4.75;;
50429;SDS011;36359;41.556;-8.418;2023-09-19T09:30:48;10.48;;;3.85;;
50429;SDS011;36359;41.556;-8.418;2023-09-19T09:33:14;15.30;;;3.65;;
50429;SDS011;36359;41.556;-8.418;2023-09-19T09:35:54;11.45;;;3.90;;
50429;SDS011;36359;41.556;-8.418;2023-09-19T09:38:26;13.98;;;3.33;;
50429;SDS011;36359;41.556;-8.418;2023-09-19T09:40:54;10.80;;;3.53;;
50429;SDS011;36359;41.556;-8.418;2023-09-19T09:43:38;9.45;;;3.35;;
50429;SDS011;36359;41.556;-8.418;2023-09-19T09:46:06;9.20;;;3.47;;
50429;SDS011;36359;41.556;-8.418;2023-09-19T09:49:02;10.50;;;3.55;;
50429;SDS011;36359;41.556;-8.418;2023-09-19T09:51:51;6.07;;;2.97;;
50429;SDS011;36359;41.556;-8.418;2023-09-19T09:54:33;9.10;;;3.47;;
50429;SDS011;36359;41.556;-8.418;2023-09-19T09:57:09;10.40;;;3.85;;
50429;SDS011;36359;41.556;-8.418;2023-09-19T09:59:59;7.95;;;2.88;;
50429;SDS011;36359;41.556;-8.418;2023-09-19T10:02:41;10.05;;;3.47;;
50429;SDS011;36359;41.556;-8.418;2023-09-19T10:05:13;9.60;;;3.47;;
50429;SDS011;36359;41.556;-8.418;2023-09-19T10:07:45;12.10;;;3.90;;
50429;SDS011;36359;41.556;-8.418;2023-09-19T10:10:31;9.23;;;3.25;;
50429;SDS011;36359;41.556;-8.418;2023-09-19T10:13:11;11.55;;;4.13;;
50429;SDS011;36359;41.556;-8.418;2023-09-19T10:18:10;10.32;;;3.38;;
50429;SDS011;36359;41.556;-8.418;2023-09-19T10:20:44;9.10;;;3.15;;
50429;SDS011;36359;41.556;-8.418;2023-09-19T10:23:11;11.25;;;3.72;;
50429;SDS011;36359;41.556;-8.418;2023-09-19T10:25:46;8.18;;;2.90;;
50429;SDS011;36359;41.556;-8.418;2023-09-19T10:28:14;12.38;;;3.90;;
50429;SDS011;36359;41.556;-8.418;2023-09-19T10:30:45;13.35;;;3.60;;
50429;SDS011;36359;41.556;-8.418;2023-09-19T10:33:16;10.80;;;3.42;;
50429;SDS011;36359;41.556;-8.418;2023-09-19T10:35:47;8.52;;;2.70;;
50429;SDS011;36359;41.556;-8.418;2023-09-19T10:38:20;10.60;;;3.72;;
50429;SDS011;36359;41.556;-8.418;2023-09-19T10:40:49;10.25;;;3.53;;
50429;SDS011;36359;41.556;-8.418;2023-09-19T10:43:18;12.07;;;3.75;;
50429;SDS011;36359;41.556;-8.418;2023-09-19T10:48:31;7.82;;;3.42;;
50429;SDS011;36359;41.556;-8.418;2023-09-19T10:53:27;9.10;;;3.50;;
50429;SDS011;36359;41.556;-8.418;2023-09-19T10:58:28;9.70;;;2.45;;
50429;SDS011;36359;41.556;-8.418;2023-09-19T11:01:00;6.95;;;3.35;;
50429;SDS011;36359;41.556;-8.418;2023-09-19T11:03:37;7.90;;;3.72;;
50429;SDS011;36359;41.556;-8.418;2023-09-19T11:09:18;6.15;;;2.80;;
50429;SDS011;36359;41.556;-8.418;2023-09-19T11:14:41;8.23;;;2.28;;
50429;SDS011;36359;41.556;-8.418;2023-09-19T11:30:38;6.13;;;2.03;;
50429;SDS011;36359;41.556;-8.418;2023-09-19T11:43:49;9.82;;;2.45;;
50429;SDS011;36359;41.556;-8.418;2023-09-19T11:46:24;11.10;;;1.98;;
50429;SDS011;36359;41.556;-8.418;2023-09-19T11:48:50;7.35;;;2.15;;
50429;SDS011;36359;41.556;-8.418;2023-09-19T11:51:21;7.13;;;1.95;;
50429;SDS011;36359;41.556;-8.418;2023-09-19T11:53:54;6.45;;;1.83;;
50429;SDS011;36359;41.556;-8.418;2023-09-19T11:56:21;7.57;;;2.00;;
50429;SDS011;36359;41.556;-8.418;2023-09-19T11:58:50;8.20;;;2.65;;
50429;SDS011;36359;41.556;-8.418;2023-09-19T12:03:57;7.13;;;2.45;;
50429;SDS011;36359;41.556;-8.418;2023-09-19T12:06:28;9.43;;;2.55;;
50429;SDS011;36359;41.556;-8.418;2023-09-19T12:11:22;7.18;;;2.33;;
50429;SDS011;36359;41.556;-8.418;2023-09-19T12:13:50;7.65;;;2.45;;
50429;SDS011;36359;41.556;-8.418;2023-09-19T12:16:19;10.65;;;2.80;;
50429;SDS011;36359;41.556;-8.418;2023-09-19T12:18:52;7.40;;;2.58;;
50429;SDS011;36359;41.556;-8.418;2023-09-19T12:21:23;9.77;;;2.80;;
50429;SDS011;36359;41.556;-8.418;2023-09-19T12:26:42;5.32;;;2.33;;
50429;SDS011;36359;41.556;-8.418;2023-09-19T12:29:12;7.72;;;2.33;;
50429;SDS011;36359;41.556;-8.418;2023-09-19T12:34:25;8.50;;;2.65;;
50429;SDS011;36359;41.556;-8.418;2023-09-19T12:37:05;8.15;;;2.60;;
50429;SDS011;36359;41.556;-8.418;2023-09-19T12:39:46;7.93;;;1.90;;
50429;SDS011;36359;41.556;-8.418;2023-09-19T12:42:23;7.25;;;2.00;;
50429;SDS011;36359;41.556;-8.418;2023-09-19T12:44:53;8.55;;;3.17;;
50429;SDS011;36359;41.556;-8.418;2023-09-19T12:47:23;7.90;;;2.33;;
50429;SDS011;36359;41.556;-8.418;2023-09-19T12:50:11;7.22;;;2.42;;
50429;SDS011;36359;41.556;-8.418;2023-09-19T12:52:51;5.05;;;2.03;;
50429;SDS011;36359;41.556;-8.418;2023-09-19T12:55:21;5.53;;;1.92;;
50429;SDS011;36359;41.556;-8.418;2023-09-19T13:03:17;5.80;;;2.20;;
50429;SDS011;36359;41.556;-8.418;2023-09-19T13:05:57;6.80;;;2.45;;
50429;SDS011;36359;41.556;-8.418;2023-09-19T13:08:28;6.70;;;2.08;;
50429;SDS011;36359;41.556;-8.418;2023-09-19T13:11:04;5.97;;;1.92;;
50429;SDS011;36359;41.556;-8.418;2023-09-19T13:13:46;5.00;;;1.80;;
50429;SDS011;36359;41.556;-8.418;2023-09-19T13:16:21;6.25;;;2.38;;
50429;SDS011;36359;41.556;-8.418;2023-09-19T13:18:48;8.40;;;2.95;;
50429;SDS011;36359;41.556;-8.418;2023-09-19T13:21:39;8.80;;;1.98;;
50429;SDS011;36359;41.556;-8.418;2023-09-19T13:24:24;7.15;;;2.00;;
50429;SDS011;36359;41.556;-8.418;2023-09-19T13:26:55;6.75;;;1.92;;
50429;SDS011;36359;41.556;-8.418;2023-09-19T13:29:22;6.32;;;2.22;;
50429;SDS011;36359;41.556;-8.418;2023-09-19T13:31:48;6.57;;;2.13;;
50429;SDS011;36359;41.556;-8.418;2023-09-19T13:34:15;6.57;;;2.20;;
50429;SDS011;36359;41.556;-8.418;2023-09-19T13:36:42;7.13;;;2.28;;
50429;SDS011;36359;41.556;-8.418;2023-09-19T13:39:09;5.13;;;2.03;;
50429;SDS011;36359;41.556;-8.418;2023-09-19T13:41:35;7.35;;;2.38;;
50429;SDS011;36359;41.556;-8.418;2023-09-19T13:44:04;8.07;;;2.30;;
50429;SDS011;36359;41.556;-8.418;2023-09-19T13:46:30;4.20;;;2.13;;
50429;SDS011;36359;41.556;-8.418;2023-09-19T13:48:58;8.30;;;2.33;;
50429;SDS011;36359;41.556;-8.418;2023-09-19T13:51:28;6.55;;;2.00;;
50429;SDS011;36359;41.556;-8.418;2023-09-19T13:53:55;8.68;;;2.28;;
50429;SDS011;36359;41.556;-8.418;2023-09-19T13:56:21;7.60;;;2.28;;
50429;SDS011;36359;41.556;-8.418;2023-09-19T13:58:47;7.93;;;1.90;;
50429;SDS011;36359;41.556;-8.418;2023-09-19T14:01:13;4.40;;;1.80;;
50429;SDS011;36359;41.556;-8.418;2023-09-19T14:03:39;5.85;;;2.20;;
50429;SDS011;36359;41.556;-8.418;2023-09-19T14:06:05;6.32;;;2.00;;
50429;SDS011;36359;41.556;-8.418;2023-09-19T14:08:31;9.23;;;2.95;;
50429;SDS011;36359;41.556;-8.418;2023-09-19T14:10:59;4.95;;;2.30;;
50429;SDS011;36359;41.556;-8.418;2023-09-19T14:13:30;6.00;;;2.10;;
50429;SDS011;36359;41.556;-8.418;2023-09-19T14:15:56;7.72;;;2.40;;
50429;SDS011;36359;41.556;-8.418;2023-09-19T14:18:22;6.78;;;2.78;;
50429;SDS011;36359;41.556;-8.418;2023-09-19T14:20:49;7.78;;;2.17;;
50429;SDS011;36359;41.556;-8.418;2023-09-19T14:23:18;5.03;;;2.23;;
50429;SDS011;36359;41.556;-8.418;2023-09-19T14:25:44;6.07;;;2.55;;
50429;SDS011;36359;41.556;-8.418;2023-09-19T14:28:09;8.02;;;2.20;;
50429;SDS011;36359;41.556;-8.418;2023-09-19T14:30:35;6.82;;;2.00;;
50429;SDS011;36359;41.556;-8.418;2023-09-19T14:33:02;7.80;;;2.38;;
50429;SDS011;36359;41.556;-8.418;2023-09-19T14:35:29;5.78;;;2.53;;
50429;SDS011;36359;41.556;-8.418;2023-09-19T14:37:55;5.28;;;2.15;;
50429;SDS011;36359;41.556;-8.418;2023-09-19T14:40:21;9.00;;;2.50;;
50429;SDS011;36359;41.556;-8.418;2023-09-19T14:42:47;9.02;;;2.40;;
50429;SDS011;36359;41.556;-8.418;2023-09-19T14:45:13;6.20;;;2.00;;
50429;SDS011;36359;41.556;-8.418;2023-09-19T14:47:43;5.55;;;2.00;;
50429;SDS011;36359;41.556;-8.418;2023-09-19T14:50:11;6.72;;;2.38;;
50429;SDS011;36359;41.556;-8.418;2023-09-19T14:52:38;5.95;;;2.28;;
50429;SDS011;36359;41.556;-8.418;2023-09-19T14:55:05;8.50;;;2.13;;
50429;SDS011;36359;41.556;-8.418;2023-09-19T14:57:34;9.93;;;2.47;;
50429;SDS011;36359;41.556;-8.418;2023-09-19T15:00:00;6.38;;;2.00;;
50429;SDS011;36359;41.556;-8.418;2023-09-19T15:02:25;6.15;;;1.90;;
50429;SDS011;36359;41.556;-8.418;2023-09-19T15:04:51;7.53;;;2.13;;
50429;SDS011;36359;41.556;-8.418;2023-09-19T15:07:18;7.18;;;1.73;;
50429;SDS011;36359;41.556;-8.418;2023-09-19T15:09:43;6.13;;;2.08;;
50429;SDS011;36359;41.556;-8.418;2023-09-19T15:12:09;5.47;;;1.75;;
50429;SDS011;36359;41.556;-8.418;2023-09-19T15:14:40;5.60;;;1.98;;
50429;SDS011;36359;41.556;-8.418;2023-09-19T15:17:10;7.85;;;3.00;;
50429;SDS011;36359;41.556;-8.418;2023-09-19T15:19:36;8.85;;;1.65;;
50429;SDS011;36359;41.556;-8.418;2023-09-19T15:22:03;6.80;;;2.13;;
50429;SDS011;36359;41.556;-8.418;2023-09-19T15:24:29;7.43;;;1.90;;
50429;SDS011;36359;41.556;-8.418;2023-09-19T15:26:55;8.63;;;1.80;;
50429;SDS011;36359;41.556;-8.418;2023-09-19T15:29:24;7.05;;;2.08;;
50429;SDS011;36359;41.556;-8.418;2023-09-19T15:31:49;9.23;;;2.20;;
50429;SDS011;36359;41.556;-8.418;2023-09-19T15:34:15;5.78;;;2.08;;
50429;SDS011;36359;41.556;-8.418;2023-09-19T15:36:41;4.50;;;1.80;;
50429;SDS011;36359;41.556;-8.418;2023-09-19T15:39:07;6.45;;;1.65;;
50429;SDS011;36359;41.556;-8.418;2023-09-19T15:41:39;6.38;;;2.22;;
50429;SDS011;36359;41.556;-8.418;2023-09-19T15:44:15;4.97;;;1.73;;
50429;SDS011;36359;41.556;-8.418;2023-09-19T15:46:42;5.97;;;1.75;;
50429;SDS011;36359;41.556;-8.418;2023-09-19T15:49:09;7.75;;;2.53;;
50429;SDS011;36359;41.556;-8.418;2023-09-19T15:51:35;5.00;;;1.80;;
50429;SDS011;36359;41.556;-8.418;2023-09-19T15:54:01;7.00;;;1.58;;
50429;SDS011;36359;41.556;-8.418;2023-09-19T15:56:33;6.55;;;1.48;;
50429;SDS011;36359;41.556;-8.418;2023-09-19T15:59:02;6.18;;;1.60;;
50429;SDS011;36359;41.556;-8.418;2023-09-19T16:01:28;4.88;;;1.80;;
50429;SDS011;36359;41.556;-8.418;2023-09-19T16:03:53;4.82;;;1.48;;
50429;SDS011;36359;41.556;-8.418;2023-09-19T16:06:22;7.22;;;2.03;;
50429;SDS011;36359;41.556;-8.418;2023-09-19T16:08:59;9.40;;;2.55;;
50429;SDS011;36359;41.556;-8.418;2023-09-19T16:11:26;9.95;;;2.15;;
50429;SDS011;36359;41.556;-8.418;2023-09-19T16:13:53;8.07;;;2.00;;